sensor_id;sensor_type;location;lat;lon;timestamp;P1;durP1;ratioP1;P2;durP2;ratioP2
2041;SDS011;1026;51.460;7.252;2022-07-21T00:02:08;7.20;;;6.60;;
2041;SDS011;1026;51.460;7.252;2022-07-21T00:04:33;8.53;;;7.83;;
2041;SDS011;1026;51.460;7.252;2022-07-21T00:06:59;6.90;;;6.40;;
2041;SDS011;1026;51.460;7.252;2022-07-21T00:09:25;8.57;;;7.93;;
2041;SDS011;1026;51.460;7.252;2022-07-21T00:11:51;7.37;;;6.77;;
2041;SDS011;1026;51.460;7.252;2022-07-21T00:14:16;8.03;;;7.33;;
2041;SDS011;1026;51.460;7.252;2022-07-21T00:16:42;8.77;;;7.97;;
2041;SDS011;1026;51.460;7.252;2022-07-21T00:19:09;8.10;;;7.50;;
2041;SDS011;1026;51.460;7.252;2022-07-21T00:21:35;8.27;;;7.53;;
2041;SDS011;1026;51.460;7.252;2022-07-21T00:24:01;8.70;;;8.00;;
2041;SDS011;1026;51.460;7.252;2022-07-21T00:26:28;7.50;;;6.90;;
2041;SDS011;1026;51.460;7.252;2022-07-21T00:28:54;7.10;;;6.60;;
2041;SDS011;1026;51.460;7.252;2022-07-21T00:31:19;6.93;;;6.43;;
2041;SDS011;1026;51.460;7.252;2022-07-21T00:33:45;7.17;;;6.57;;
2041;SDS011;1026;51.460;7.252;2022-07-21T00:36:11;7.40;;;6.80;;
2041;SDS011;1026;51.460;7.252;2022-07-21T00:38:37;6.90;;;6.40;;
2041;SDS011;1026;51.460;7.252;2022-07-21T00:41:02;7.17;;;6.50;;
2041;SDS011;1026;51.460;7.252;2022-07-21T00:43:28;7.87;;;7.07;;
2041;SDS011;1026;51.460;7.252;2022-07-21T00:45:54;7.33;;;6.77;;
2041;SDS011;1026;51.460;7.252;2022-07-21T00:48:20;13.10;;;7.77;;
2041;SDS011;1026;51.460;7.252;2022-07-21T00:50:46;6.47;;;5.97;;
2041;SDS011;1026;51.460;7.252;2022-07-21T00:53:12;7.57;;;6.87;;
2041;SDS011;1026;51.460;7.252;2022-07-21T00:55:38;6.90;;;6.50;;
2041;SDS011;1026;51.460;7.252;2022-07-21T00:58:08;6.40;;;5.90;;
2041;SDS011;1026;51.460;7.252;2022-07-21T01:00:34;8.53;;;6.53;;
2041;SDS011;1026;51.460;7.252;2022-07-21T01:03:00;6.00;;;5.60;;
2041;SDS011;1026;51.460;7.252;2022-07-21T01:05:26;6.67;;;6.17;;
2041;SDS011;1026;51.460;7.252;2022-07-21T01:07:53;7.10;;;6.50;;
2041;SDS011;1026;51.460;7.252;2022-07-21T01:10:22;7.23;;;6.63;;
2041;SDS011;1026;51.460;7.252;2022-07-21T01:12:50;6.73;;;6.13;;
2041;SDS011;1026;51.460;7.252;2022-07-21T01:15:16;7.33;;;6.63;;
2041;SDS011;1026;51.460;7.252;2022-07-21T01:17:53;6.80;;;6.20;;
2041;SDS011;1026;51.460;7.252;2022-07-21T01:20:20;6.50;;;5.90;;
2041;SDS011;1026;51.460;7.252;2022-07-21T01:22:48;6.20;;;5.70;;
2041;SDS011;1026;51.460;7.252;2022-07-21T01:25:15;7.30;;;6.60;;
2041;SDS011;1026;51.460;7.252;2022-07-21T01:27:42;6.80;;;6.30;;
2041;SDS011;1026;51.460;7.252;2022-07-21T01:30:08;6.20;;;5.70;;
2041;SDS011;1026;51.460;7.252;2022-07-21T01:32:35;9.50;;;6.10;;
2041;SDS011;1026;51.460;7.252;2022-07-21T01:35:03;7.70;;;6.03;;
2041;SDS011;1026;51.460;7.252;2022-07-21T01:37:30;5.70;;;5.20;;
2041;SDS011;1026;51.460;7.252;2022-07-21T01:39:57;6.60;;;6.10;;
2041;SDS011;1026;51.460;7.252;2022-07-21T01:42:37;6.53;;;5.97;;
2041;SDS011;1026;51.460;7.252;2022-07-21T01:45:04;9.03;;;6.53;;
2041;SDS011;1026;51.460;7.252;2022-07-21T01:47:30;5.70;;;5.20;;
2041;SDS011;1026;51.460;7.252;2022-07-21T01:49:56;6.57;;;6.07;;
2041;SDS011;1026;51.460;7.252;2022-07-21T01:52:22;6.70;;;6.10;;
2041;SDS011;1026;51.460;7.252;2022-07-21T01:54:48;5.93;;;5.43;;
2041;SDS011;1026;51.460;7.252;2022-07-21T01:57:14;7.03;;;6.40;;
2041;SDS011;1026;51.460;7.252;2022-07-21T01:59:40;7.37;;;6.40;;
2041;SDS011;1026;51.460;7.252;2022-07-21T02:02:06;6.30;;;5.80;;
2041;SDS011;1026;51.460;7.252;2022-07-21T02:04:31;6.27;;;5.77;;
2041;SDS011;1026;51.460;7.252;2022-07-21T02:06:59;6.60;;;6.00;;
2041;SDS011;1026;51.460;7.252;2022-07-21T02:09:25;7.23;;;6.63;;
2041;SDS011;1026;51.460;7.252;2022-07-21T02:11:51;5.70;;;5.20;;
2041;SDS011;1026;51.460;7.252;2022-07-21T02:14:16;5.70;;;5.20;;
2041;SDS011;1026;51.460;7.252;2022-07-21T02:16:42;6.67;;;6.07;;
2041;SDS011;1026;51.460;7.252;2022-07-21T02:19:08;6.80;;;6.13;;
2041;SDS011;1026;51.460;7.252;2022-07-21T02:21:34;5.50;;;5.10;;
2041;SDS011;1026;51.460;7.252;2022-07-21T02:23:59;6.03;;;5.53;;
2041;SDS011;1026;51.460;7.252;2022-07-21T02:26:25;6.40;;;5.90;;
2041;SDS011;1026;51.460;7.252;2022-07-21T02:28:51;6.10;;;5.60;;
2041;SDS011;1026;51.460;7.252;2022-07-21T02:31:16;5.63;;;5.23;;
2041;SDS011;1026;51.460;7.252;2022-07-21T02:33:42;5.60;;;5.10;;
2041;SDS011;1026;51.460;7.252;2022-07-21T02:36:08;6.10;;;5.70;;
2041;SDS011;1026;51.460;7.252;2022-07-21T02:38:34;5.57;;;5.17;;
2041;SDS011;1026;51.460;7.252;2022-07-21T02:40:59;5.23;;;4.73;;
2041;SDS011;1026;51.460;7.252;2022-07-21T02:43:25;5.70;;;5.30;;
2041;SDS011;1026;51.460;7.252;2022-07-21T02:45:51;5.97;;;5.47;;
2041;SDS011;1026;51.460;7.252;2022-07-21T02:48:16;6.20;;;5.47;;
2041;SDS011;1026;51.460;7.252;2022-07-21T02:50:43;6.00;;;5.50;;
2041;SDS011;1026;51.460;7.252;2022-07-21T02:53:13;6.20;;;5.60;;
2041;SDS011;1026;51.460;7.252;2022-07-21T02:55:44;5.80;;;5.30;;
2041;SDS011;1026;51.460;7.252;2022-07-21T03:00:39;5.20;;;4.80;;
2041;SDS011;1026;51.460;7.252;2022-07-21T03:03:08;5.50;;;5.10;;
2041;SDS011;1026;51.460;7.252;2022-07-21T03:05:35;5.70;;;5.20;;
2041;SDS011;1026;51.460;7.252;2022-07-21T03:08:01;6.40;;;5.80;;
2041;SDS011;1026;51.460;7.252;2022-07-21T03:10:28;4.70;;;4.30;;
2041;SDS011;1026;51.460;7.252;2022-07-21T03:12:54;5.60;;;5.10;;
2041;SDS011;1026;51.460;7.252;2022-07-21T03:15:20;5.73;;;5.27;;
2041;SDS011;1026;51.460;7.252;2022-07-21T03:17:52;5.80;;;5.30;;
2041;SDS011;1026;51.460;7.252;2022-07-21T03:20:19;5.27;;;4.90;;
2041;SDS011;1026;51.460;7.252;2022-07-21T03:22:46;6.33;;;5.83;;
2041;SDS011;1026;51.460;7.252;2022-07-21T03:25:12;4.43;;;4.03;;
2041;SDS011;1026;51.460;7.252;2022-07-21T03:27:38;5.83;;;5.43;;
2041;SDS011;1026;51.460;7.252;2022-07-21T03:30:04;5.40;;;5.00;;
2041;SDS011;1026;51.460;7.252;2022-07-21T03:32:32;5.43;;;4.43;;
2041;SDS011;1026;51.460;7.252;2022-07-21T03:34:57;5.20;;;4.50;;
2041;SDS011;1026;51.460;7.252;2022-07-21T03:37:23;5.03;;;4.53;;
2041;SDS011;1026;51.460;7.252;2022-07-21T03:39:50;4.93;;;4.53;;
2041;SDS011;1026;51.460;7.252;2022-07-21T03:42:16;4.43;;;4.10;;
2041;SDS011;1026;51.460;7.252;2022-07-21T03:44:41;4.57;;;4.23;;
2041;SDS011;1026;51.460;7.252;2022-07-21T03:47:07;5.93;;;5.43;;
2041;SDS011;1026;51.460;7.252;2022-07-21T03:49:32;4.60;;;4.20;;
2041;SDS011;1026;51.460;7.252;2022-07-21T03:51:58;4.70;;;4.37;;
2041;SDS011;1026;51.460;7.252;2022-07-21T03:54:24;4.60;;;4.30;;
2041;SDS011;1026;51.460;7.252;2022-07-21T03:56:49;5.50;;;4.73;;
2041;SDS011;1026;51.460;7.252;2022-07-21T03:59:15;5.10;;;4.63;;
2041;SDS011;1026;51.460;7.252;2022-07-21T04:01:41;6.20;;;5.60;;
2041;SDS011;1026;51.460;7.252;2022-07-21T04:04:06;6.50;;;5.90;;
2041;SDS011;1026;51.460;7.252;2022-07-21T04:06:32;4.60;;;4.20;;
2041;SDS011;1026;51.460;7.252;2022-07-21T04:08:58;5.33;;;4.80;;
2041;SDS011;1026;51.460;7.252;2022-07-21T04:11:23;4.80;;;4.13;;
2041;SDS011;1026;51.460;7.252;2022-07-21T04:13:49;4.10;;;3.80;;
2041;SDS011;1026;51.460;7.252;2022-07-21T04:16:15;5.17;;;4.20;;
2041;SDS011;1026;51.460;7.252;2022-07-21T04:18:40;5.07;;;4.57;;
2041;SDS011;1026;51.460;7.252;2022-07-21T04:21:06;4.57;;;4.27;;
2041;SDS011;1026;51.460;7.252;2022-07-21T04:23:32;4.80;;;4.40;;
2041;SDS011;1026;51.460;7.252;2022-07-21T04:25:57;5.10;;;4.67;;
2041;SDS011;1026;51.460;7.252;2022-07-21T04:28:23;4.43;;;4.13;;
2041;SDS011;1026;51.460;7.252;2022-07-21T04:30:49;4.43;;;4.10;;
2041;SDS011;1026;51.460;7.252;2022-07-21T04:33:14;4.63;;;4.33;;
2041;SDS011;1026;51.460;7.252;2022-07-21T04:35:40;5.00;;;4.60;;
2041;SDS011;1026;51.460;7.252;2022-07-21T04:38:08;5.40;;;5.00;;
2041;SDS011;1026;51.460;7.252;2022-07-21T04:40:34;5.10;;;4.70;;
2041;SDS011;1026;51.460;7.252;2022-07-21T04:42:59;4.70;;;4.03;;
2041;SDS011;1026;51.460;7.252;2022-07-21T04:45:25;4.33;;;4.03;;
2041;SDS011;1026;51.460;7.252;2022-07-21T04:47:52;5.30;;;4.90;;
2041;SDS011;1026;51.460;7.252;2022-07-21T04:50:20;4.97;;;4.47;;
2041;SDS011;1026;51.460;7.252;2022-07-21T04:52:48;4.87;;;4.47;;
2041;SDS011;1026;51.460;7.252;2022-07-21T04:55:14;5.17;;;4.70;;
2041;SDS011;1026;51.460;7.252;2022-07-21T04:57:41;4.90;;;4.50;;
2041;SDS011;1026;51.460;7.252;2022-07-21T05:00:10;4.60;;;4.30;;
2041;SDS011;1026;51.460;7.252;2022-07-21T05:02:37;4.63;;;4.23;;
2041;SDS011;1026;51.460;7.252;2022-07-21T05:05:03;5.20;;;4.80;;
2041;SDS011;1026;51.460;7.252;2022-07-21T05:07:30;5.70;;;3.80;;
2041;SDS011;1026;51.460;7.252;2022-07-21T05:09:56;5.90;;;5.40;;
2041;SDS011;1026;51.460;7.252;2022-07-21T05:12:24;5.30;;;4.80;;
2041;SDS011;1026;51.460;7.252;2022-07-21T05:15:06;5.07;;;4.57;;
2041;SDS011;1026;51.460;7.252;2022-07-21T05:17:51;5.90;;;5.40;;
2041;SDS011;1026;51.460;7.252;2022-07-21T05:20:17;5.00;;;4.63;;
2041;SDS011;1026;51.460;7.252;2022-07-21T05:22:43;5.23;;;4.77;;
2041;SDS011;1026;51.460;7.252;2022-07-21T05:25:08;4.90;;;4.40;;
2041;SDS011;1026;51.460;7.252;2022-07-21T05:27:34;3.73;;;3.33;;
2041;SDS011;1026;51.460;7.252;2022-07-21T05:30:00;5.40;;;4.90;;
2041;SDS011;1026;51.460;7.252;2022-07-21T05:32:26;6.03;;;4.10;;
2041;SDS011;1026;51.460;7.252;2022-07-21T05:34:52;4.60;;;4.30;;
2041;SDS011;1026;51.460;7.252;2022-07-21T05:37:17;5.30;;;4.70;;
2041;SDS011;1026;51.460;7.252;2022-07-21T05:39:43;5.03;;;4.63;;
2041;SDS011;1026;51.460;7.252;2022-07-21T05:42:08;5.30;;;4.90;;
2041;SDS011;1026;51.460;7.252;2022-07-21T05:44:34;4.20;;;3.90;;
2041;SDS011;1026;51.460;7.252;2022-07-21T05:47:00;8.80;;;6.57;;
2041;SDS011;1026;51.460;7.252;2022-07-21T05:49:25;5.00;;;4.60;;
2041;SDS011;1026;51.460;7.252;2022-07-21T05:51:51;5.70;;;5.10;;
2041;SDS011;1026;51.460;7.252;2022-07-21T05:54:17;6.70;;;6.10;;
2041;SDS011;1026;51.460;7.252;2022-07-21T05:56:42;6.33;;;5.77;;
2041;SDS011;1026;51.460;7.252;2022-07-21T05:59:08;5.43;;;4.60;;
2041;SDS011;1026;51.460;7.252;2022-07-21T06:01:33;4.90;;;4.57;;
2041;SDS011;1026;51.460;7.252;2022-07-21T06:03:59;5.70;;;5.20;;
2041;SDS011;1026;51.460;7.252;2022-07-21T06:06:25;4.73;;;4.33;;
2041;SDS011;1026;51.460;7.252;2022-07-21T06:08:50;4.17;;;3.87;;
2041;SDS011;1026;51.460;7.252;2022-07-21T06:11:17;5.10;;;4.67;;
2041;SDS011;1026;51.460;7.252;2022-07-21T06:13:44;5.90;;;5.30;;
2041;SDS011;1026;51.460;7.252;2022-07-21T06:16:10;11.73;;;9.07;;
2041;SDS011;1026;51.460;7.252;2022-07-21T06:18:36;5.20;;;4.80;;
2041;SDS011;1026;51.460;7.252;2022-07-21T06:21:02;6.10;;;5.50;;
2041;SDS011;1026;51.460;7.252;2022-07-21T06:23:29;6.27;;;5.70;;
2041;SDS011;1026;51.460;7.252;2022-07-21T06:25:55;5.80;;;5.30;;
2041;SDS011;1026;51.460;7.252;2022-07-21T06:28:21;8.10;;;7.30;;
2041;SDS011;1026;51.460;7.252;2022-07-21T06:30:47;6.37;;;5.87;;
2041;SDS011;1026;51.460;7.252;2022-07-21T06:33:14;5.97;;;5.43;;
2041;SDS011;1026;51.460;7.252;2022-07-21T06:35:40;8.67;;;7.97;;
2041;SDS011;1026;51.460;7.252;2022-07-21T06:38:06;7.17;;;6.57;;
2041;SDS011;1026;51.460;7.252;2022-07-21T06:40:31;8.97;;;8.17;;
2041;SDS011;1026;51.460;7.252;2022-07-21T06:42:57;7.20;;;6.70;;
2041;SDS011;1026;51.460;7.252;2022-07-21T06:45:23;5.70;;;5.10;;
2041;SDS011;1026;51.460;7.252;2022-07-21T06:47:50;6.90;;;6.30;;
2041;SDS011;1026;51.460;7.252;2022-07-21T06:50:23;6.40;;;5.80;;
2041;SDS011;1026;51.460;7.252;2022-07-21T06:52:49;6.37;;;5.40;;
2041;SDS011;1026;51.460;7.252;2022-07-21T06:55:14;5.77;;;5.37;;
2041;SDS011;1026;51.460;7.252;2022-07-21T06:57:40;6.63;;;6.13;;
2041;SDS011;1026;51.460;7.252;2022-07-21T07:00:06;6.80;;;6.17;;
2041;SDS011;1026;51.460;7.252;2022-07-21T07:02:33;9.20;;;8.30;;
2041;SDS011;1026;51.460;7.252;2022-07-21T07:04:59;6.43;;;5.93;;
2041;SDS011;1026;51.460;7.252;2022-07-21T07:07:24;4.93;;;4.57;;
2041;SDS011;1026;51.460;7.252;2022-07-21T07:09:50;7.33;;;6.77;;
2041;SDS011;1026;51.460;7.252;2022-07-21T07:12:15;5.40;;;5.00;;
2041;SDS011;1026;51.460;7.252;2022-07-21T07:14:41;7.87;;;7.23;;
2041;SDS011;1026;51.460;7.252;2022-07-21T07:17:07;8.00;;;7.30;;
2041;SDS011;1026;51.460;7.252;2022-07-21T07:19:32;5.87;;;5.40;;
2041;SDS011;1026;51.460;7.252;2022-07-21T07:21:58;7.67;;;5.60;;
2041;SDS011;1026;51.460;7.252;2022-07-21T07:24:24;6.17;;;5.67;;
2041;SDS011;1026;51.460;7.252;2022-07-21T07:26:49;6.23;;;5.80;;
2041;SDS011;1026;51.460;7.252;2022-07-21T07:29:15;4.90;;;4.50;;
2041;SDS011;1026;51.460;7.252;2022-07-21T07:31:41;8.63;;;7.83;;
2041;SDS011;1026;51.460;7.252;2022-07-21T07:34:07;7.17;;;6.47;;
2041;SDS011;1026;51.460;7.252;2022-07-21T07:36:33;6.00;;;5.50;;
2041;SDS011;1026;51.460;7.252;2022-07-21T07:39:00;5.50;;;5.00;;
2041;SDS011;1026;51.460;7.252;2022-07-21T07:41:27;6.03;;;5.53;;
2041;SDS011;1026;51.460;7.252;2022-07-21T07:43:54;7.10;;;4.90;;
2041;SDS011;1026;51.460;7.252;2022-07-21T07:46:19;5.97;;;5.47;;
2041;SDS011;1026;51.460;7.252;2022-07-21T07:48:46;6.90;;;6.20;;
2041;SDS011;1026;51.460;7.252;2022-07-21T07:51:13;10.00;;;6.30;;
2041;SDS011;1026;51.460;7.252;2022-07-21T07:53:40;4.77;;;4.40;;
2041;SDS011;1026;51.460;7.252;2022-07-21T07:56:06;5.47;;;5.07;;
2041;SDS011;1026;51.460;7.252;2022-07-21T07:58:32;6.00;;;5.50;;
2041;SDS011;1026;51.460;7.252;2022-07-21T08:00:58;6.07;;;5.47;;
2041;SDS011;1026;51.460;7.252;2022-07-21T08:03:25;6.50;;;5.90;;
2041;SDS011;1026;51.460;7.252;2022-07-21T08:05:52;6.23;;;5.10;;
2041;SDS011;1026;51.460;7.252;2022-07-21T08:08:19;5.50;;;5.17;;
2041;SDS011;1026;51.460;7.252;2022-07-21T08:10:45;5.33;;;4.83;;
2041;SDS011;1026;51.460;7.252;2022-07-21T08:13:12;5.27;;;4.87;;
2041;SDS011;1026;51.460;7.252;2022-07-21T08:15:39;5.97;;;5.03;;
2041;SDS011;1026;51.460;7.252;2022-07-21T08:18:05;5.27;;;4.80;;
2041;SDS011;1026;51.460;7.252;2022-07-21T08:20:31;5.93;;;5.00;;
2041;SDS011;1026;51.460;7.252;2022-07-21T08:22:57;6.10;;;5.60;;
2041;SDS011;1026;51.460;7.252;2022-07-21T08:25:23;6.23;;;5.63;;
2041;SDS011;1026;51.460;7.252;2022-07-21T08:27:48;6.73;;;5.17;;
2041;SDS011;1026;51.460;7.252;2022-07-21T08:30:14;5.03;;;4.63;;
2041;SDS011;1026;51.460;7.252;2022-07-21T08:32:40;5.57;;;4.93;;
2041;SDS011;1026;51.460;7.252;2022-07-21T08:35:06;6.27;;;5.77;;
2041;SDS011;1026;51.460;7.252;2022-07-21T08:37:34;7.00;;;6.33;;
2041;SDS011;1026;51.460;7.252;2022-07-21T08:40:02;6.17;;;5.67;;
2041;SDS011;1026;51.460;7.252;2022-07-21T08:42:29;6.20;;;5.70;;
2041;SDS011;1026;51.460;7.252;2022-07-21T08:44:55;5.00;;;4.70;;
2041;SDS011;1026;51.460;7.252;2022-07-21T08:47:21;5.40;;;4.97;;
2041;SDS011;1026;51.460;7.252;2022-07-21T08:49:47;4.90;;;4.60;;
2041;SDS011;1026;51.460;7.252;2022-07-21T08:52:14;5.23;;;4.73;;
2041;SDS011;1026;51.460;7.252;2022-07-21T08:54:40;5.20;;;4.90;;
2041;SDS011;1026;51.460;7.252;2022-07-21T08:57:05;5.77;;;5.40;;
2041;SDS011;1026;51.460;7.252;2022-07-21T08:59:31;7.50;;;6.80;;
2041;SDS011;1026;51.460;7.252;2022-07-21T09:01:58;4.80;;;4.40;;
2041;SDS011;1026;51.460;7.252;2022-07-21T09:04:28;6.30;;;5.80;;
2041;SDS011;1026;51.460;7.252;2022-07-21T09:06:58;5.47;;;5.07;;
2041;SDS011;1026;51.460;7.252;2022-07-21T09:09:28;7.10;;;6.43;;
2041;SDS011;1026;51.460;7.252;2022-07-21T09:11:55;5.00;;;4.60;;
2041;SDS011;1026;51.460;7.252;2022-07-21T09:14:22;5.37;;;4.90;;
2041;SDS011;1026;51.460;7.252;2022-07-21T09:19:22;4.77;;;4.40;;
2041;SDS011;1026;51.460;7.252;2022-07-21T09:21:49;7.27;;;4.97;;
2041;SDS011;1026;51.460;7.252;2022-07-21T09:24:18;4.80;;;4.47;;
2041;SDS011;1026;51.460;7.252;2022-07-21T09:32:16;5.10;;;4.80;;
2041;SDS011;1026;51.460;7.252;2022-07-21T09:34:59;6.47;;;5.60;;
2041;SDS011;1026;51.460;7.252;2022-07-21T09:37:29;4.97;;;4.57;;
2041;SDS011;1026;51.460;7.252;2022-07-21T09:39:57;7.07;;;6.47;;
2041;SDS011;1026;51.460;7.252;2022-07-21T09:42:27;4.73;;;4.43;;
2041;SDS011;1026;51.460;7.252;2022-07-21T09:44:55;4.57;;;4.13;;
2041;SDS011;1026;51.460;7.252;2022-07-21T09:47:24;5.10;;;4.70;;
2041;SDS011;1026;51.460;7.252;2022-07-21T09:49:53;5.40;;;4.83;;
2041;SDS011;1026;51.460;7.252;2022-07-21T09:52:22;4.90;;;4.50;;
2041;SDS011;1026;51.460;7.252;2022-07-21T09:54:50;5.37;;;4.93;;
2041;SDS011;1026;51.460;7.252;2022-07-21T09:57:17;5.23;;;4.83;;
2041;SDS011;1026;51.460;7.252;2022-07-21T09:59:45;5.00;;;4.50;;
2041;SDS011;1026;51.460;7.252;2022-07-21T10:02:14;4.60;;;4.20;;
2041;SDS011;1026;51.460;7.252;2022-07-21T10:04:42;4.47;;;4.00;;
2041;SDS011;1026;51.460;7.252;2022-07-21T10:07:12;6.30;;;5.80;;
2041;SDS011;1026;51.460;7.252;2022-07-21T10:09:38;5.53;;;5.10;;
2041;SDS011;1026;51.460;7.252;2022-07-21T10:12:05;5.27;;;4.10;;
2041;SDS011;1026;51.460;7.252;2022-07-21T10:14:31;5.90;;;4.70;;
2041;SDS011;1026;51.460;7.252;2022-07-21T10:16:57;5.50;;;5.00;;
2041;SDS011;1026;51.460;7.252;2022-07-21T10:19:26;6.30;;;4.80;;
2041;SDS011;1026;51.460;7.252;2022-07-21T10:21:58;5.83;;;4.77;;
2041;SDS011;1026;51.460;7.252;2022-07-21T10:24:31;5.33;;;4.83;;
2041;SDS011;1026;51.460;7.252;2022-07-21T10:26:59;5.27;;;4.63;;
2041;SDS011;1026;51.460;7.252;2022-07-21T10:29:48;5.50;;;5.00;;
2041;SDS011;1026;51.460;7.252;2022-07-21T10:32:15;5.23;;;4.83;;
2041;SDS011;1026;51.460;7.252;2022-07-21T10:34:42;6.37;;;5.87;;
2041;SDS011;1026;51.460;7.252;2022-07-21T10:37:08;5.23;;;4.90;;
2041;SDS011;1026;51.460;7.252;2022-07-21T10:39:34;5.80;;;5.30;;
2041;SDS011;1026;51.460;7.252;2022-07-21T10:42:02;5.20;;;4.90;;
2041;SDS011;1026;51.460;7.252;2022-07-21T10:44:40;5.87;;;5.33;;
2041;SDS011;1026;51.460;7.252;2022-07-21T10:47:08;6.10;;;5.60;;
2041;SDS011;1026;51.460;7.252;2022-07-21T10:49:44;5.60;;;5.20;;
2041;SDS011;1026;51.460;7.252;2022-07-21T10:55:14;5.40;;;4.90;;
2041;SDS011;1026;51.460;7.252;2022-07-21T10:57:43;8.37;;;5.90;;
2041;SDS011;1026;51.460;7.252;2022-07-21T11:02:59;6.10;;;5.60;;
2041;SDS011;1026;51.460;7.252;2022-07-21T11:05:27;5.97;;;5.57;;
2041;SDS011;1026;51.460;7.252;2022-07-21T11:10:39;5.90;;;5.50;;
2041;SDS011;1026;51.460;7.252;2022-07-21T11:13:07;5.77;;;4.97;;
2041;SDS011;1026;51.460;7.252;2022-07-21T11:18:24;4.77;;;4.37;;
2041;SDS011;1026;51.460;7.252;2022-07-21T11:23:35;6.47;;;5.97;;
2041;SDS011;1026;51.460;7.252;2022-07-21T11:26:02;5.07;;;4.77;;
2041;SDS011;1026;51.460;7.252;2022-07-21T11:28:27;5.43;;;4.90;;
2041;SDS011;1026;51.460;7.252;2022-07-21T11:31:05;4.50;;;4.20;;
2041;SDS011;1026;51.460;7.252;2022-07-21T11:33:32;5.90;;;5.40;;
2041;SDS011;1026;51.460;7.252;2022-07-21T11:36:00;6.47;;;5.93;;
2041;SDS011;1026;51.460;7.252;2022-07-21T11:38:25;5.70;;;5.20;;
2041;SDS011;1026;51.460;7.252;2022-07-21T11:40:51;5.17;;;4.77;;
2041;SDS011;1026;51.460;7.252;2022-07-21T11:43:17;5.60;;;5.10;;
2041;SDS011;1026;51.460;7.252;2022-07-21T11:48:31;4.73;;;4.40;;
2041;SDS011;1026;51.460;7.252;2022-07-21T11:51:01;6.00;;;5.50;;
2041;SDS011;1026;51.460;7.252;2022-07-21T11:53:27;5.97;;;5.40;;
2041;SDS011;1026;51.460;7.252;2022-07-21T11:55:53;5.17;;;4.77;;
2041;SDS011;1026;51.460;7.252;2022-07-21T11:58:20;6.23;;;5.73;;
2041;SDS011;1026;51.460;7.252;2022-07-21T12:00:46;4.30;;;3.93;;
2041;SDS011;1026;51.460;7.252;2022-07-21T12:03:12;6.87;;;6.37;;
2041;SDS011;1026;51.460;7.252;2022-07-21T12:05:39;5.50;;;5.10;;
2041;SDS011;1026;51.460;7.252;2022-07-21T12:08:05;4.80;;;4.30;;
2041;SDS011;1026;51.460;7.252;2022-07-21T12:10:31;5.57;;;5.17;;
2041;SDS011;1026;51.460;7.252;2022-07-21T12:12:58;5.00;;;4.60;;
2041;SDS011;1026;51.460;7.252;2022-07-21T12:15:28;5.20;;;4.30;;
2041;SDS011;1026;51.460;7.252;2022-07-21T12:17:58;5.27;;;4.87;;
2041;SDS011;1026;51.460;7.252;2022-07-21T12:20:30;5.77;;;5.03;;
2041;SDS011;1026;51.460;7.252;2022-07-21T12:23:00;4.80;;;4.50;;
2041;SDS011;1026;51.460;7.252;2022-07-21T12:25:36;5.70;;;5.30;;
2041;SDS011;1026;51.460;7.252;2022-07-21T12:28:04;4.00;;;3.70;;
2041;SDS011;1026;51.460;7.252;2022-07-21T12:30:33;4.77;;;4.37;;
2041;SDS011;1026;51.460;7.252;2022-07-21T12:33:10;5.80;;;5.40;;
2041;SDS011;1026;51.460;7.252;2022-07-21T12:35:39;5.07;;;4.67;;
2041;SDS011;1026;51.460;7.252;2022-07-21T12:38:08;5.23;;;4.73;;
2041;SDS011;1026;51.460;7.252;2022-07-21T12:40:39;4.30;;;4.00;;
2041;SDS011;1026;51.460;7.252;2022-07-21T12:43:12;4.70;;;4.30;;
2041;SDS011;1026;51.460;7.252;2022-07-21T12:45:52;6.37;;;5.87;;
2041;SDS011;1026;51.460;7.252;2022-07-21T12:53:32;5.50;;;5.10;;
2041;SDS011;1026;51.460;7.252;2022-07-21T12:55:59;4.73;;;4.33;;
2041;SDS011;1026;51.460;7.252;2022-07-21T12:58:26;4.57;;;4.17;;
2041;SDS011;1026;51.460;7.252;2022-07-21T13:00:52;4.17;;;3.80;;
2041;SDS011;1026;51.460;7.252;2022-07-21T13:03:18;4.50;;;4.20;;
2041;SDS011;1026;51.460;7.252;2022-07-21T13:05:44;4.90;;;4.40;;
2041;SDS011;1026;51.460;7.252;2022-07-21T13:08:09;4.00;;;3.70;;
2041;SDS011;1026;51.460;7.252;2022-07-21T13:10:35;4.37;;;3.50;;
2041;SDS011;1026;51.460;7.252;2022-07-21T13:13:01;4.23;;;3.93;;
2041;SDS011;1026;51.460;7.252;2022-07-21T13:15:27;4.60;;;4.30;;
2041;SDS011;1026;51.460;7.252;2022-07-21T13:17:52;4.53;;;4.23;;
2041;SDS011;1026;51.460;7.252;2022-07-21T13:20:18;4.00;;;3.70;;
2041;SDS011;1026;51.460;7.252;2022-07-21T13:22:43;4.47;;;4.17;;
2041;SDS011;1026;51.460;7.252;2022-07-21T13:25:10;4.30;;;4.00;;
2041;SDS011;1026;51.460;7.252;2022-07-21T13:27:36;4.03;;;3.73;;
2041;SDS011;1026;51.460;7.252;2022-07-21T13:30:03;4.10;;;3.80;;
2041;SDS011;1026;51.460;7.252;2022-07-21T13:32:30;3.77;;;3.30;;
2041;SDS011;1026;51.460;7.252;2022-07-21T13:34:57;4.10;;;3.80;;
2041;SDS011;1026;51.460;7.252;2022-07-21T13:37:23;3.60;;;3.40;;
2041;SDS011;1026;51.460;7.252;2022-07-21T13:39:48;5.03;;;4.63;;
2041;SDS011;1026;51.460;7.252;2022-07-21T13:42:14;3.80;;;3.53;;
2041;SDS011;1026;51.460;7.252;2022-07-21T13:44:39;3.60;;;3.30;;
2041;SDS011;1026;51.460;7.252;2022-07-21T13:47:05;3.80;;;3.50;;
2041;SDS011;1026;51.460;7.252;2022-07-21T13:49:31;3.80;;;3.40;;
2041;SDS011;1026;51.460;7.252;2022-07-21T13:51:56;3.80;;;3.60;;
2041;SDS011;1026;51.460;7.252;2022-07-21T13:54:22;3.57;;;3.27;;
2041;SDS011;1026;51.460;7.252;2022-07-21T13:56:48;4.00;;;3.70;;
2041;SDS011;1026;51.460;7.252;2022-07-21T13:59:13;3.67;;;3.40;;
2041;SDS011;1026;51.460;7.252;2022-07-21T14:01:39;3.60;;;3.40;;
2041;SDS011;1026;51.460;7.252;2022-07-21T14:04:05;4.30;;;4.00;;
2041;SDS011;1026;51.460;7.252;2022-07-21T14:06:31;5.23;;;4.83;;
2041;SDS011;1026;51.460;7.252;2022-07-21T14:08:56;4.70;;;4.37;;
2041;SDS011;1026;51.460;7.252;2022-07-21T14:11:22;5.17;;;4.77;;
2041;SDS011;1026;51.460;7.252;2022-07-21T14:13:49;4.20;;;3.80;;
2041;SDS011;1026;51.460;7.252;2022-07-21T14:16:15;5.23;;;4.83;;
2041;SDS011;1026;51.460;7.252;2022-07-21T14:18:41;5.27;;;4.77;;
2041;SDS011;1026;51.460;7.252;2022-07-21T14:21:06;3.97;;;3.67;;
2041;SDS011;1026;51.460;7.252;2022-07-21T14:23:32;3.10;;;2.87;;
2041;SDS011;1026;51.460;7.252;2022-07-21T14:25:58;4.87;;;4.50;;
2041;SDS011;1026;51.460;7.252;2022-07-21T14:28:24;4.90;;;4.50;;
2041;SDS011;1026;51.460;7.252;2022-07-21T14:30:50;3.50;;;3.30;;
2041;SDS011;1026;51.460;7.252;2022-07-21T14:33:17;4.50;;;4.10;;
2041;SDS011;1026;51.460;7.252;2022-07-21T14:35:42;4.07;;;3.50;;
2041;SDS011;1026;51.460;7.252;2022-07-21T14:38:08;4.13;;;3.70;;
2041;SDS011;1026;51.460;7.252;2022-07-21T14:40:35;3.93;;;3.63;;
2041;SDS011;1026;51.460;7.252;2022-07-21T14:43:01;3.97;;;3.67;;
2041;SDS011;1026;51.460;7.252;2022-07-21T14:45:26;3.90;;;3.60;;
2041;SDS011;1026;51.460;7.252;2022-07-21T14:47:53;3.63;;;3.20;;
2041;SDS011;1026;51.460;7.252;2022-07-21T14:50:21;4.10;;;3.80;;
2041;SDS011;1026;51.460;7.252;2022-07-21T14:52:48;3.87;;;3.57;;
2041;SDS011;1026;51.460;7.252;2022-07-21T14:55:14;5.33;;;3.53;;
2041;SDS011;1026;51.460;7.252;2022-07-21T14:57:40;3.20;;;3.00;;
2041;SDS011;1026;51.460;7.252;2022-07-21T15:00:07;3.73;;;3.53;;
2041;SDS011;1026;51.460;7.252;2022-07-21T15:02:34;3.67;;;3.40;;
2041;SDS011;1026;51.460;7.252;2022-07-21T15:05:00;4.70;;;4.30;;
2041;SDS011;1026;51.460;7.252;2022-07-21T15:07:25;3.70;;;3.50;;
2041;SDS011;1026;51.460;7.252;2022-07-21T15:09:51;4.17;;;3.90;;
2041;SDS011;1026;51.460;7.252;2022-07-21T15:12:17;5.20;;;4.70;;
2041;SDS011;1026;51.460;7.252;2022-07-21T15:14:43;5.10;;;4.70;;
2041;SDS011;1026;51.460;7.252;2022-07-21T15:17:09;4.23;;;3.80;;
2041;SDS011;1026;51.460;7.252;2022-07-21T15:19:34;5.03;;;4.63;;
2041;SDS011;1026;51.460;7.252;2022-07-21T15:22:00;4.70;;;4.33;;
2041;SDS011;1026;51.460;7.252;2022-07-21T15:24:26;4.30;;;4.00;;
2041;SDS011;1026;51.460;7.252;2022-07-21T15:26:51;4.97;;;4.57;;
2041;SDS011;1026;51.460;7.252;2022-07-21T15:29:17;3.70;;;3.40;;
2041;SDS011;1026;51.460;7.252;2022-07-21T15:31:43;4.00;;;3.70;;
2041;SDS011;1026;51.460;7.252;2022-07-21T15:34:09;3.53;;;3.27;;
2041;SDS011;1026;51.460;7.252;2022-07-21T15:36:35;3.50;;;3.20;;
2041;SDS011;1026;51.460;7.252;2022-07-21T15:39:01;4.20;;;3.90;;
2041;SDS011;1026;51.460;7.252;2022-07-21T15:41:26;3.70;;;3.40;;
2041;SDS011;1026;51.460;7.252;2022-07-21T15:43:52;4.87;;;4.50;;
2041;SDS011;1026;51.460;7.252;2022-07-21T15:46:18;3.77;;;3.50;;